Time;durP1;ratioP1;P1;durP2;ratioP2;P2;SDS_P1;SDS_P2;PMS_P1;PMS_P2;Temp;Humidity;BMP_temperature;BMP_pressure;BME280_temperature;BME280_humidity;BME280_pressure;Samples;Min_cycle;Max_cycle;Signal;HPM_P1;HPM_P2
2021/04/21 00:00:55;;;;;;;2.75;2.13;;;30.50;92.10;;;;;;4952727;29;20260;-52
2021/04/21 00:03:25;;;;;;;3.40;2.65;;;30.50;92.10;;;;;;4949519;29;20237;-54
2021/04/21 00:05:57;;;;;;;3.63;2.17;;;30.60;92.20;;;;;;4953931;28;20240;-53
2021/04/21 00:08:27;;;;;;;2.38;2.17;;;30.60;92.20;;;;;;4953976;29;20284;-51
2021/04/21 00:10:59;;;;;;;3.00;2.50;;;30.70;92.20;;;;;;4954379;29;20236;-52
2021/04/21 00:13:29;;;;;;;2.58;2.25;;;30.80;92.20;;;;;;4955647;29;20699;-56
2021/04/21 00:16:00;;;;;;;3.03;2.25;;;30.90;92.30;;;;;;4954808;29;20658;-52
2021/04/21 00:18:30;;;;;;;4.28;2.40;;;30.90;92.40;;;;;;4986501;28;20227;-54
2021/04/21 00:21:02;;;;;;;3.85;2.78;;;31.00;92.40;;;;;;4996634;28;20269;-55
2021/04/21 00:23:35;;;;;;;3.15;2.67;;;31.10;92.40;;;;;;4997624;28;20203;-51
2021/04/21 00:26:09;;;;;;;3.60;2.70;;;31.10;92.40;;;;;;4999276;28;20208;-51
2021/04/21 00:28:40;;;;;;;3.20;2.15;;;31.20;92.50;;;;;;4997757;28;20260;-55
2021/04/21 00:31:10;;;;;;;3.10;2.35;;;31.30;92.50;;;;;;4996828;28;20200;-50
2021/04/21 00:33:41;;;;;;;3.30;1.95;;;31.30;92.50;;;;;;4997086;28;20314;-52
2021/04/21 00:36:15;;;;;;;3.45;2.17;;;31.40;92.50;;;;;;4997157;28;20196;-50
2021/04/21 00:38:46;;;;;;;2.97;2.17;;;31.50;92.40;;;;;;4994004;28;20192;-52
2021/04/21 00:41:24;;;;;;;3.22;2.28;;;31.60;92.40;;;;;;4995888;28;20192;-52
2021/04/21 00:43:55;;;;;;;3.78;2.88;;;31.60;92.30;;;;;;4954354;29;20235;-50
2021/04/21 00:46:30;;;;;;;2.67;1.85;;;31.70;92.30;;;;;;4954238;29;20233;-50
2021/04/21 00:49:06;;;;;;;2.45;1.45;;;31.70;92.20;;;;;;4954225;29;20208;-53
2021/04/21 00:51:42;;;;;;;1.52;1.42;;;31.80;92.20;;;;;;4953217;29;20206;-54
2021/04/21 00:54:17;;;;;;;1.33;1.23;;;31.80;92.10;;;;;;4915840;29;20325;-48
2021/04/21 00:56:56;;;;;;;4.18;1.65;;;31.90;92.00;;;;;;4914980;29;20705;-48
2021/04/21 00:59:33;;;;;;;1.38;1.17;;;32.00;91.80;;;;;;4898551;29;20274;-51
2021/04/21 01:02:04;;;;;;;1.27;1.00;;;32.10;91.70;;;;;;4897449;29;20350;-48
2021/04/21 01:04:34;;;;;;;1.30;1.08;;;32.20;91.60;;;;;;4897578;29;20278;-50
2021/04/21 01:07:06;;;;;;;3.00;0.95;;;32.20;91.40;;;;;;4898609;29;20322;-52
2021/04/21 01:09:36;;;;;;;1.38;0.70;;;32.30;91.50;;;;;;4898317;29;20253;-52
2021/04/21 01:12:07;;;;;;;1.05;0.70;;;32.40;91.50;;;;;;4879366;29;20240;-54
2021/04/21 01:14:39;;;;;;;2.00;1.20;;;32.40;91.30;;;;;;4900008;29;20586;-51
2021/04/21 01:17:11;;;;;;;2.35;0.80;;;32.40;90.90;;;;;;4929215;29;20239;-52
2021/04/21 01:19:58;;;;;;;2.38;0.98;;;32.50;90.70;;;;;;4916584;29;20276;-50
2021/04/21 01:22:34;;;;;;;0.60;0.60;;;32.60;90.30;;;;;;4859436;29;20213;-51
2021/04/21 01:25:06;;;;;;;1.20;0.90;;;32.60;90.30;;;;;;4875701;29;20219;-50
2021/04/21 01:27:45;;;;;;;2.63;0.73;;;32.70;90.50;;;;;;4896395;29;20204;-53
2021/04/21 01:30:16;;;;;;;1.33;0.80;;;32.80;90.40;;;;;;4886554;29;20294;-50
2021/04/21 01:32:46;;;;;;;0.90;0.75;;;32.80;90.40;;;;;;4893813;29;20227;-51
2021/04/21 01:35:19;;;;;;;1.52;0.82;;;32.90;90.20;;;;;;4896587;29;20203;-53
2021/04/21 01:37:51;;;;;;;1.50;0.90;;;33.00;90.10;;;;;;4953117;29;20220;-50
2021/04/21 01:40:23;;;;;;;0.98;0.77;;;33.00;88.70;;;;;;4953546;28;20709;-52
2021/04/21 01:42:57;;;;;;;3.70;3.40;;;33.10;89.10;;;;;;4953324;29;20205;-53
2021/04/21 01:45:29;;;;;;;2.05;1.63;;;33.20;88.80;;;;;;4949695;29;20207;-55
2021/04/21 01:48:02;;;;;;;1.40;1.00;;;33.20;88.90;;;;;;4947095;29;20209;-54
2021/04/21 01:50:32;;;;;;;0.95;0.77;;;33.30;88.80;;;;;;4952558;29;20205;-51
2021/04/21 01:53:06;;;;;;;2.15;0.98;;;33.40;88.90;;;;;;4966091;28;20223;-53
2021/04/21 01:55:44;;;;;;;1.60;0.95;;;33.40;87.80;;;;;;4954585;29;20256;-55
2021/04/21 01:58:33;;;;;;;1.35;1.13;;;33.50;87.80;;;;;;4854154;29;20308;-55
2021/04/21 02:01:07;;;;;;;1.85;1.00;;;33.60;87.90;;;;;;4859525;29;20263;-53
2021/04/21 02:03:40;;;;;;;1.40;0.80;;;33.70;88.00;;;;;;4860314;29;20250;-53
2021/04/21 02:06:48;;;;;;;1.20;0.85;;;33.70;87.00;;;;;;4859332;29;20212;-54
2021/04/21 02:09:30;;;;;;;1.70;0.93;;;33.80;86.60;;;;;;4857515;29;20295;-50
2021/04/21 02:12:06;;;;;;;1.60;1.20;;;33.90;85.10;;;;;;4820289;29;20210;-49
2021/04/21 02:14:42;;;;;;;2.20;1.17;;;33.90;83.40;;;;;;4865377;29;20236;-49
2021/04/21 02:17:19;;;;;;;2.08;1.38;;;33.90;83.00;;;;;;4877890;29;20215;-48
2021/04/21 02:20:02;;;;;;;4.22;1.83;;;33.90;82.60;;;;;;4877777;29;20718;-52
2021/04/21 02:22:37;;;;;;;3.33;1.58;;;33.90;82.60;;;;;;4899874;29;20248;-52
2021/04/21 02:25:15;;;;;;;2.30;1.55;;;34.00;83.70;;;;;;4934323;29;20202;-51
2021/04/21 02:28:00;;;;;;;2.30;1.67;;;34.00;83.50;;;;;;4931215;29;20690;-54
2021/04/21 02:30:40;;;;;;;7.15;2.53;;;34.10;83.70;;;;;;4956019;29;20206;-50
2021/04/21 02:33:16;;;;;;;2.38;1.60;;;34.10;83.90;;;;;;4913390;29;20774;-54
2021/04/21 02:35:48;;;;;;;4.43;1.20;;;34.30;84.30;;;;;;4930204;28;20296;-50
2021/04/21 02:38:26;;;;;;;1.63;1.20;;;34.30;83.70;;;;;;4974311;28;20212;-53
2021/04/21 02:41:14;;;;;;;1.80;0.80;;;34.30;83.10;;;;;;4976030;28;20229;-53
2021/04/21 02:44:03;;;;;;;1.52;1.10;;;34.50;83.40;;;;;;4975685;28;20248;-52
2021/04/21 02:46:38;;;;;;;1.77;1.10;;;34.60;83.10;;;;;;4974837;28;20284;-53
2021/04/21 02:49:26;;;;;;;2.53;1.42;;;34.60;80.50;;;;;;4975412;28;20219;-49
2021/04/21 02:52:03;;;;;;;1.63;1.42;;;34.60;79.00;;;;;;4917676;29;20219;-48
2021/04/21 02:54:44;;;;;;;1.60;1.20;;;34.60;78.40;;;;;;4879407;29;20239;-51
2021/04/21 02:57:20;;;;;;;1.55;1.17;;;34.60;79.30;;;;;;4877946;29;20288;-50
2021/04/21 02:59:53;;;;;;;4.13;1.60;;;34.60;79.80;;;;;;4880091;29;20208;-50
2021/04/21 03:02:30;;;;;;;2.40;1.80;;;34.60;80.10;;;;;;4879569;29;20276;-48
2021/04/21 03:05:06;;;;;;;1.85;1.27;;;34.60;79.70;;;;;;4872967;29;20224;-49
2021/04/21 03:07:41;;;;;;;1.35;1.25;;;34.60;80.30;;;;;;4879594;29;20243;-48
2021/04/21 03:10:13;;;;;;;1.20;1.10;;;34.60;80.20;;;;;;4842085;29;20699;-51
2021/04/21 03:12:47;;;;;;;1.40;1.30;;;34.60;80.30;;;;;;4841290;29;20345;-49
2021/04/21 03:15:20;;;;;;;1.30;1.20;;;34.50;80.10;;;;;;4823210;29;20253;-49
2021/04/21 03:17:54;;;;;;;1.60;1.30;;;34.50;80.00;;;;;;4878921;29;20252;-48
2021/04/21 03:20:25;;;;;;;1.70;1.38;;;34.50;79.70;;;;;;4878618;29;20269;-48
2021/04/21 03:22:56;;;;;;;1.30;1.20;;;34.50;79.50;;;;;;4879305;29;20221;-48
2021/04/21 03:25:34;;;;;;;3.00;1.70;;;34.40;79.80;;;;;;4877647;29;20746;-47
2021/04/21 03:28:07;;;;;;;2.88;1.60;;;34.30;79.60;;;;;;4877345;29;20290;-48
2021/04/21 03:30:37;;;;;;;2.40;1.73;;;34.30;80.10;;;;;;4879929;29;20295;-49
2021/04/21 03:33:11;;;;;;;2.67;1.85;;;34.30;80.50;;;;;;4879292;29;20785;-49
2021/04/21 03:35:41;;;;;;;2.80;1.52;;;34.30;80.60;;;;;;4933038;28;20669;-50
2021/04/21 03:38:14;;;;;;;2.95;1.92;;;34.30;80.80;;;;;;4971865;28;20239;-50
2021/04/21 03:40:45;;;;;;;3.67;2.25;;;34.20;80.60;;;;;;4967914;28;20336;-50
2021/04/21 03:43:16;;;;;;;1.88;1.65;;;34.20;80.60;;;;;;4973356;28;20582;-49
2021/04/21 03:45:49;;;;;;;2.10;1.60;;;34.20;81.10;;;;;;4979577;28;20234;-52
2021/04/21 03:48:21;;;;;;;2.33;1.60;;;34.20;81.40;;;;;;4996292;28;20254;-49
2021/04/21 03:50:52;;;;;;;1.80;1.50;;;34.30;82.50;;;;;;4989936;28;20201;-51
2021/04/21 03:53:25;;;;;;;2.08;1.25;;;34.30;82.50;;;;;;4996267;28;20302;-50
2021/04/21 03:55:56;;;;;;;1.85;1.38;;;34.30;82.60;;;;;;4954673;29;20733;-49
2021/04/21 03:58:28;;;;;;;2.25;1.50;;;34.40;82.70;;;;;;4953763;29;20217;-46
2021/04/21 04:01:08;;;;;;;1.92;1.48;;;34.40;82.10;;;;;;4953871;29;20230;-51
2021/04/21 04:03:39;;;;;;;1.52;1.38;;;34.50;83.00;;;;;;4954145;29;20638;-48
2021/04/21 04:06:11;;;;;;;1.85;1.55;;;34.50;81.60;;;;;;4954141;29;20332;-46
2021/04/21 04:08:45;;;;;;;1.58;1.48;;;34.60;81.70;;;;;;4953890;29;20210;-48
2021/04/21 04:11:16;;;;;;;2.05;1.30;;;34.60;81.70;;;;;;4953430;29;20249;-48
2021/04/21 04:13:48;;;;;;;2.03;1.30;;;34.70;82.10;;;;;;4954163;29;20217;-49
2021/04/21 04:16:18;;;;;;;1.60;1.20;;;34.70;82.20;;;;;;4951765;29;20283;-52
2021/04/21 04:18:50;;;;;;;1.48;1.30;;;34.80;82.00;;;;;;4915483;29;20247;-53
2021/04/21 04:21:21;;;;;;;1.40;1.30;;;34.90;82.20;;;;;;4916005;29;20320;-53
2021/04/21 04:23:51;;;;;;;1.48;1.38;;;34.90;82.20;;;;;;4916123;29;20206;-53
2021/04/21 04:26:22;;;;;;;1.73;1.30;;;35.00;82.40;;;;;;4932412;28;20251;-52
2021/04/21 04:28:53;;;;;;;1.50;1.30;;;35.10;82.80;;;;;;4973200;28;20216;-49
2021/04/21 04:31:23;;;;;;;2.22;1.60;;;35.20;82.10;;;;;;4935183;29;20298;-49
2021/04/21 04:33:55;;;;;;;1.88;1.63;;;35.30;82.00;;;;;;4928224;29;20222;-49
2021/04/21 04:36:25;;;;;;;1.77;1.48;;;35.40;80.80;;;;;;4934734;29;20218;-49
2021/04/21 04:38:55;;;;;;;1.55;1.45;;;35.50;80.20;;;;;;4934573;29;20245;-50
2021/04/21 04:41:27;;;;;;;2.17;1.50;;;35.50;79.80;;;;;;4934531;29;20297;-50
2021/04/21 04:43:58;;;;;;;2.22;1.58;;;35.60;79.30;;;;;;4933646;29;20297;-52
2021/04/21 04:46:30;;;;;;;1.42;1.33;;;35.60;79.20;;;;;;4933454;29;20624;-52
2021/04/21 04:49:03;;;;;;;3.08;1.55;;;35.60;79.30;;;;;;4940265;28;20239;-51
2021/04/21 04:51:35;;;;;;;1.70;1.60;;;35.70;78.80;;;;;;4970782;28;20213;-51
2021/04/21 04:54:09;;;;;;;2.15;1.67;;;35.70;78.20;;;;;;4972487;28;20228;-50
2021/04/21 04:56:39;;;;;;;2.25;2.05;;;35.70;78.20;;;;;;4972660;28;20284;-48
2021/04/21 04:59:10;;;;;;;2.35;1.98;;;35.70;78.10;;;;;;4972529;28;20211;-48
2021/04/21 05:01:48;;;;;;;4.18;3.20;;;35.70;77.80;;;;;;4975668;28;20252;-51
2021/04/21 05:04:22;;;;;;;4.05;2.85;;;35.60;78.40;;;;;;4992698;28;20224;-51
2021/04/21 05:06:58;;;;;;;3.42;2.88;;;35.60;76.30;;;;;;4995420;28;20223;-52
2021/04/21 05:09:30;;;;;;;3.55;2.85;;;35.60;76.50;;;;;;4994972;28;20215;-52
2021/04/21 05:12:03;;;;;;;4.55;3.28;;;35.50;77.10;;;;;;4993927;28;20239;-52
2021/04/21 05:14:34;;;;;;;5.15;3.72;;;35.50;76.80;;;;;;4993693;28;20209;-49
2021/04/21 05:17:37;;;;;;;5.75;3.80;;;35.40;76.70;;;;;;4995119;28;20231;-53
2021/04/21 05:20:31;;;;;;;3.33;2.88;;;35.30;75.90;;;;;;4994278;28;20283;-49
2021/04/21 05:23:57;;;;;;;3.65;2.90;;;35.30;76.00;;;;;;4994541;28;20197;-49
2021/04/21 05:26:46;;;;;;;4.95;4.03;;;35.10;76.90;;;;;;4993945;28;20815;-52
2021/04/21 05:30:02;;;;;;;4.75;4.35;;;35.10;77.70;;;;;;4994842;28;20275;-52
2021/04/21 05:33:02;;;;;;;6.30;3.40;;;35.00;78.40;;;;;;4913336;29;20211;-52
2021/04/21 05:36:18;;;;;;;4.05;2.50;;;35.00;79.20;;;;;;4909696;29;20213;-52
2021/04/21 05:39:44;;;;;;;3.00;1.90;;;35.00;79.30;;;;;;4914230;29;20222;-50
2021/04/21 05:42:53;;;;;;;3.83;2.95;;;35.10;79.30;;;;;;4821527;29;20735;-49
2021/04/21 05:45:59;;;;;;;3.63;2.80;;;35.10;77.70;;;;;;4820872;29;20278;-55
2021/04/21 05:49:01;;;;;;;3.92;3.00;;;35.10;78.50;;;;;;4822153;29;20220;-49
2021/04/21 05:52:14;;;;;;;3.55;2.60;;;35.10;78.90;;;;;;4821229;29;20209;-50
2021/04/21 05:55:13;;;;;;;2.55;2.22;;;35.10;78.40;;;;;;4821760;29;20245;-49
2021/04/21 05:58:27;;;;;;;2.88;1.95;;;35.20;78.80;;;;;;4865373;29;20211;-51
2021/04/21 06:01:20;;;;;;;2.55;1.70;;;35.20;78.20;;;;;;4930556;29;20241;-51
2021/04/21 06:03:51;;;;;;;3.30;2.60;;;35.20;78.50;;;;;;4954879;28;20233;-51
2021/04/21 06:06:22;;;;;;;2.40;2.10;;;35.30;78.70;;;;;;4970147;28;20299;-51
2021/04/21 06:08:53;;;;;;;2.20;2.00;;;35.30;79.10;;;;;;4998369;28;20647;-54
2021/04/21 06:11:27;;;;;;;2.20;1.80;;;35.40;79.90;;;;;;4997291;28;20243;-52
2021/04/21 06:13:58;;;;;;;2.88;1.75;;;35.40;79.10;;;;;;4995714;28;20232;-52
2021/04/21 06:16:29;;;;;;;2.75;1.80;;;35.50;78.80;;;;;;4998015;28;20589;-50
2021/04/21 06:19:02;;;;;;;3.33;2.33;;;35.60;79.20;;;;;;4997582;28;20235;-47
2021/04/21 06:21:34;;;;;;;3.10;1.90;;;35.60;78.10;;;;;;4998021;28;20200;-49
2021/04/21 06:24:19;;;;;;;2.17;1.60;;;35.60;76.90;;;;;;4998189;28;20208;-47
2021/04/21 06:26:49;;;;;;;2.47;1.88;;;35.70;75.80;;;;;;4997586;28;20204;-49
2021/04/21 06:29:20;;;;;;;2.25;2.00;;;35.70;76.20;;;;;;4997578;28;20246;-48
2021/04/21 06:31:50;;;;;;;2.22;1.77;;;35.70;75.50;;;;;;4997379;28;20227;-49
2021/04/21 06:34:21;;;;;;;1.80;1.67;;;35.70;71.70;;;;;;4997236;28;20226;-48
2021/04/21 06:36:54;;;;;;;2.67;2.10;;;35.70;73.20;;;;;;4967736;28;20208;-51
2021/04/21 06:39:26;;;;;;;2.10;1.90;;;35.70;73.50;;;;;;4975723;28;20212;-50
2021/04/21 06:41:57;;;;;;;2.92;2.30;;;35.70;74.20;;;;;;4974651;28;20668;-52
2021/04/21 06:44:42;;;;;;;2.00;1.80;;;35.80;74.40;;;;;;4972673;28;20217;-52
2021/04/21 06:47:15;;;;;;;2.00;1.90;;;35.80;74.60;;;;;;4972173;28;20272;-53
2021/04/21 06:49:48;;;;;;;2.08;1.90;;;36.00;74.90;;;;;;4973047;28;20656;-52
2021/04/21 06:52:19;;;;;;;2.10;1.70;;;36.00;73.80;;;;;;4933934;29;20206;-51
2021/04/21 06:55:02;;;;;;;2.13;1.83;;;36.10;74.10;;;;;;4934538;29;20330;-52
2021/04/21 06:57:33;;;;;;;2.15;1.95;;;36.10;73.10;;;;;;4880412;29;20696;-51
2021/04/21 07:00:09;;;;;;;2.50;2.22;;;36.20;73.40;;;;;;4882073;29;20250;-53
2021/04/21 07:02:40;;;;;;;4.70;1.73;;;36.20;72.60;;;;;;4923050;29;20230;-52
2021/04/21 07:05:35;;;;;;;2.63;2.40;;;36.40;72.90;;;;;;4919519;29;20214;-50
2021/04/21 07:08:09;;;;;;;2.65;1.77;;;36.40;72.60;;;;;;4920228;29;20319;-48
2021/04/21 07:10:44;;;;;;;2.15;1.92;;;36.40;70.30;;;;;;4921848;29;20998;-47
2021/04/21 07:13:20;;;;;;;2.40;1.88;;;36.40;71.20;;;;;;4924811;29;20234;-49
2021/04/21 07:15:51;;;;;;;1.65;1.55;;;36.50;71.40;;;;;;4921932;29;20237;-47
2021/04/21 07:18:23;;;;;;;2.00;1.80;;;36.50;71.60;;;;;;4975518;28;20236;-51
2021/04/21 07:20:54;;;;;;;1.98;1.60;;;36.50;72.00;;;;;;4974525;28;20248;-50
2021/04/21 07:23:26;;;;;;;1.75;1.63;;;36.60;71.50;;;;;;4975565;28;20203;-50
2021/04/21 07:25:57;;;;;;;2.00;1.80;;;36.60;67.60;;;;;;4976706;28;20201;-52
2021/04/21 07:28:28;;;;;;;1.60;1.33;;;36.60;68.30;;;;;;4975081;28;20695;-48
2021/04/21 07:31:00;;;;;;;1.75;1.52;;;36.70;69.50;;;;;;4976654;28;20197;-48
2021/04/21 07:33:37;;;;;;;1.10;1.10;;;36.80;70.30;;;;;;4912631;29;20239;-52
2021/04/21 07:36:11;;;;;;;1.50;1.33;;;36.90;69.40;;;;;;4911904;29;20222;-49
2021/04/21 07:38:44;;;;;;;1.80;1.40;;;37.00;69.80;;;;;;4907434;29;20199;-50
2021/04/21 07:41:32;;;;;;;1.50;1.40;;;37.10;68.90;;;;;;4904382;29;20209;-49
2021/04/21 07:44:02;;;;;;;1.73;1.25;;;37.20;68.50;;;;;;4902131;29;20231;-50
2021/04/21 07:46:32;;;;;;;1.70;1.60;;;37.30;68.80;;;;;;4906431;29;20214;-52
2021/04/21 07:49:08;;;;;;;1.80;1.70;;;37.30;66.60;;;;;;4910169;29;20211;-51
2021/04/21 07:51:44;;;;;;;2.03;1.80;;;37.40;66.10;;;;;;4904125;29;20211;-49
2021/04/21 07:54:25;;;;;;;1.80;1.65;;;37.40;66.30;;;;;;4943746;29;20781;-51
2021/04/21 07:57:04;;;;;;;2.78;1.83;;;37.50;66.60;;;;;;4942815;28;20202;-50
2021/04/21 07:59:35;;;;;;;2.50;1.70;;;37.50;66.40;;;;;;4994332;28;20366;-53
2021/04/21 08:02:12;;;;;;;2.13;1.63;;;37.50;65.50;;;;;;4995704;28;20235;-50
2021/04/21 08:04:53;;;;;;;1.77;1.67;;;37.50;63.70;;;;;;4996103;28;20188;-49
2021/04/21 08:07:31;;;;;;;4.05;1.83;;;37.50;63.20;;;;;;4997602;28;20223;-52
2021/04/21 08:10:02;;;;;;;1.92;1.75;;;37.50;63.30;;;;;;4995230;28;20239;-49
2021/04/21 08:12:35;;;;;;;1.65;1.55;;;37.50;63.30;;;;;;4995532;28;20207;-51
2021/04/21 08:15:08;;;;;;;2.45;1.63;;;37.50;62.20;;;;;;4996183;28;20201;-52
2021/04/21 08:17:58;;;;;;;1.95;1.75;;;37.50;63.40;;;;;;4996187;28;20216;-50
2021/04/21 08:20:33;;;;;;;1.70;1.60;;;37.50;63.60;;;;;;4994508;28;20204;-52
2021/04/21 08:23:23;;;;;;;2.00;1.90;;;37.50;64.10;;;;;;4994330;28;20192;-52
2021/04/21 08:25:54;;;;;;;1.80;1.70;;;37.50;64.20;;;;;;4995517;28;20203;-53
2021/04/21 08:28:26;;;;;;;1.83;1.73;;;37.50;63.30;;;;;;4995261;28;20651;-52
2021/04/21 08:30:58;;;;;;;1.45;1.33;;;37.50;64.10;;;;;;4995652;28;20197;-48
2021/04/21 08:33:28;;;;;;;1.50;1.40;;;37.50;65.50;;;;;;4993836;28;20289;-51
2021/04/21 08:35:59;;;;;;;1.50;1.40;;;37.60;65.70;;;;;;4995437;28;20188;-52
2021/04/21 08:38:30;;;;;;;1.60;1.50;;;37.70;65.50;;;;;;4995566;28;20204;-52
2021/04/21 08:41:02;;;;;;;1.52;1.42;;;37.80;65.90;;;;;;4995092;28;20247;-51
2021/04/21 08:43:36;;;;;;;1.50;1.40;;;37.90;65.60;;;;;;4952247;29;20193;-52
2021/04/21 08:46:06;;;;;;;1.38;1.25;;;38.00;65.50;;;;;;4953826;29;20193;-49
2021/04/21 08:48:37;;;;;;;2.20;1.45;;;38.20;65.60;;;;;;4954361;29;20745;-53
2021/04/21 08:51:09;;;;;;;1.77;1.52;;;38.30;65.10;;;;;;4914979;29;20318;-48
2021/04/21 08:53:39;;;;;;;1.70;1.60;;;38.40;62.30;;;;;;4858670;29;20231;-50
2021/04/21 08:56:11;;;;;;;1.60;1.50;;;38.60;63.00;;;;;;4822256;29;20710;-52
2021/04/21 08:58:43;;;;;;;1.30;1.20;;;38.70;62.60;;;;;;4823421;29;20210;-47
2021/04/21 09:01:15;;;;;;;1.60;1.50;;;38.80;62.10;;;;;;4823161;29;20242;-49
2021/04/21 09:03:45;;;;;;;3.35;2.15;;;38.90;61.40;;;;;;4822689;29;20253;-48
2021/04/21 09:06:17;;;;;;;1.73;1.63;;;39.00;59.90;;;;;;4823268;29;20222;-48
2021/04/21 09:08:48;;;;;;;1.67;1.58;;;39.00;60.00;;;;;;4853431;29;20213;-51
2021/04/21 09:11:18;;;;;;;1.60;1.50;;;39.00;60.30;;;;;;4859679;29;20237;-49
2021/04/21 09:13:50;;;;;;;1.73;1.50;;;38.90;60.60;;;;;;4858676;29;20236;-49
2021/04/21 09:16:20;;;;;;;1.90;1.50;;;38.90;61.90;;;;;;4888416;29;20266;-48
2021/04/21 09:18:51;;;;;;;1.40;1.30;;;38.90;61.20;;;;;;4889896;29;20204;-51
2021/04/21 09:21:23;;;;;;;1.83;1.50;;;38.90;60.40;;;;;;4897338;29;20243;-48
2021/04/21 09:23:54;;;;;;;1.98;1.30;;;38.90;59.90;;;;;;4906695;29;20693;-48
2021/04/21 09:26:24;;;;;;;1.67;1.52;;;39.00;59.70;;;;;;4961226;28;20216;-48
2021/04/21 09:28:56;;;;;;;2.33;1.70;;;39.00;60.50;;;;;;4995069;28;20188;-49
2021/04/21 09:31:27;;;;;;;2.55;1.90;;;39.00;59.80;;;;;;4995836;28;20196;-54
2021/04/21 09:34:10;;;;;;;2.45;1.88;;;39.10;58.90;;;;;;4994780;28;20306;-51
2021/04/21 09:36:41;;;;;;;2.38;2.17;;;39.10;58.30;;;;;;4995192;28;20200;-49
2021/04/21 09:39:16;;;;;;;3.85;3.00;;;39.10;58.70;;;;;;4994599;28;20252;-50
2021/04/21 09:41:47;;;;;;;2.40;2.20;;;39.20;58.10;;;;;;4995325;28;20202;-54
2021/04/21 09:44:19;;;;;;;2.00;1.80;;;39.20;58.00;;;;;;4994362;28;20259;-50
2021/04/21 09:46:50;;;;;;;3.20;2.47;;;39.20;58.00;;;;;;4995623;28;20296;-49
2021/04/21 09:49:36;;;;;;;2.22;2.03;;;39.10;57.70;;;;;;4995782;28;20203;-49
2021/04/21 09:52:28;;;;;;;3.00;2.78;;;39.00;57.70;;;;;;4994945;28;20224;-50
2021/04/21 09:54:59;;;;;;;4.05;2.60;;;39.00;58.10;;;;;;4995288;28;20777;-50
2021/04/21 09:57:31;;;;;;;3.85;2.80;;;38.90;60.30;;;;;;4995168;28;20631;-49
2021/04/21 10:00:05;;;;;;;3.05;2.63;;;38.80;61.40;;;;;;4995387;28;20252;-52
2021/04/21 10:02:36;;;;;;;2.97;2.60;;;38.70;60.30;;;;;;4995260;28;20267;-48
2021/04/21 10:05:27;;;;;;;3.47;1.92;;;38.60;60.60;;;;;;4994770;28;20204;-50
2021/04/21 10:08:16;;;;;;;5.30;2.65;;;38.40;59.50;;;;;;4994718;28;20243;-47
2021/04/21 10:10:48;;;;;;;2.40;2.20;;;38.40;60.30;;;;;;4994697;28;20887;-52
2021/04/21 10:13:19;;;;;;;2.25;2.05;;;38.30;61.70;;;;;;4994588;28;20373;-54
2021/04/21 10:16:10;;;;;;;2.45;2.25;;;38.20;61.70;;;;;;4994089;28;20244;-49
2021/04/21 10:18:42;;;;;;;2.83;2.05;;;38.10;62.30;;;;;;4994615;28;20231;-50
2021/04/21 10:21:13;;;;;;;2.20;2.00;;;38.10;62.60;;;;;;4994468;28;20264;-50
2021/04/21 10:23:45;;;;;;;2.00;1.90;;;38.10;62.50;;;;;;4994504;28;20243;-49
2021/04/21 10:26:16;;;;;;;1.83;1.67;;;38.10;63.20;;;;;;4993857;28;20254;-49
2021/04/21 10:28:47;;;;;;;1.48;1.38;;;38.10;63.20;;;;;;4994047;28;20239;-49
2021/04/21 10:31:19;;;;;;;2.53;1.40;;;38.20;63.50;;;;;;4994276;28;20280;-49
2021/04/21 10:33:51;;;;;;;2.20;1.33;;;38.40;63.80;;;;;;4993722;28;20230;-47
2021/04/21 10:36:22;;;;;;;1.90;1.40;;;38.70;63.70;;;;;;4994559;28;20200;-50
2021/04/21 10:38:52;;;;;;;2.80;1.35;;;39.10;63.70;;;;;;4994852;28;20553;-52
2021/04/21 10:41:27;;;;;;;4.88;1.42;;;39.50;62.50;;;;;;4995378;28;20228;-52
2021/04/21 10:44:15;;;;;;;2.13;1.50;;;40.00;62.00;;;;;;4993847;28;20284;-54
2021/04/21 10:47:03;;;;;;;2.25;1.50;;;40.40;61.70;;;;;;4993956;28;20227;-51
2021/04/21 10:49:52;;;;;;;1.67;1.30;;;40.90;60.60;;;;;;4995761;28;20645;-50
2021/04/21 10:52:23;;;;;;;1.30;1.20;;;41.30;59.40;;;;;;4999151;28;20220;-48
2021/04/21 10:54:56;;;;;;;1.10;0.95;;;41.60;58.70;;;;;;4999876;28;20220;-47
2021/04/21 10:57:31;;;;;;;1.33;0.90;;;41.90;57.80;;;;;;5000156;28;20204;-48
2021/04/21 11:00:14;;;;;;;0.85;0.82;;;42.20;57.40;;;;;;4999741;28;20201;-47
2021/04/21 11:02:57;;;;;;;1.50;0.93;;;42.30;56.80;;;;;;4998846;28;20640;-51
2021/04/21 11:05:53;;;;;;;1.10;0.90;;;42.40;55.90;;;;;;4992027;28;20196;-48
2021/04/21 11:08:24;;;;;;;1.00;0.90;;;42.50;56.10;;;;;;4994937;28;20243;-51
2021/04/21 11:10:55;;;;;;;1.67;1.05;;;42.50;55.00;;;;;;4999395;28;20212;-50
2021/04/21 11:13:44;;;;;;;1.23;0.95;;;42.40;54.50;;;;;;4998779;28;20259;-50
2021/04/21 11:16:36;;;;;;;1.30;1.20;;;42.30;54.80;;;;;;5000380;28;20219;-47
2021/04/21 11:19:30;;;;;;;1.42;1.33;;;42.00;54.70;;;;;;4999850;28;20209;-49
2021/04/21 11:22:37;;;;;;;1.88;1.00;;;41.70;54.90;;;;;;4993395;28;20196;-50
2021/04/21 11:25:28;;;;;;;2.30;1.00;;;41.30;55.00;;;;;;4995115;28;20223;-53
2021/04/21 11:27:59;;;;;;;1.20;1.10;;;40.80;55.40;;;;;;5000126;28;20208;-54
2021/04/21 11:30:56;;;;;;;1.60;1.33;;;40.50;55.40;;;;;;4999524;28;20720;-52
2021/04/21 11:33:50;;;;;;;1.40;1.30;;;40.10;56.20;;;;;;4999191;28;20208;-48
2021/04/21 11:36:50;;;;;;;1.40;1.08;;;39.80;56.50;;;;;;4985217;28;20625;-51
2021/04/21 11:39:57;;;;;;;1.77;0.98;;;39.40;56.80;;;;;;4962529;28;20586;-52
2021/04/21 11:42:44;;;;;;;1.20;1.10;;;39.10;57.30;;;;;;4995455;28;20212;-56
2021/04/21 11:45:25;;;;;;;1.48;1.38;;;38.80;57.80;;;;;;4997089;28;20739;-56
2021/04/21 11:47:57;;;;;;;1.35;1.25;;;38.50;58.30;;;;;;4998305;28;20287;-54
2021/04/21 11:50:28;;;;;;;1.70;1.30;;;38.20;58.60;;;;;;4997200;28;20215;-52
2021/04/21 11:53:16;;;;;;;1.75;1.33;;;38.00;59.00;;;;;;4997592;28;20204;-53
2021/04/21 11:55:54;;;;;;;1.45;1.10;;;37.80;60.20;;;;;;4996821;28;20227;-55
2021/04/21 11:58:25;;;;;;;1.60;1.50;;;37.60;60.80;;;;;;4996926;28;20615;-55
2021/04/21 12:00:57;;;;;;;1.38;1.27;;;37.50;61.10;;;;;;4995812;28;20228;-53
2021/04/21 12:03:32;;;;;;;1.65;1.55;;;37.30;61.70;;;;;;4997568;28;20240;-55
2021/04/21 12:06:02;;;;;;;1.73;1.60;;;37.20;62.60;;;;;;4997840;28;20212;-55
2021/04/21 12:08:34;;;;;;;2.13;1.80;;;37.10;62.80;;;;;;4998215;28;20207;-53
2021/04/21 12:11:05;;;;;;;2.75;1.92;;;36.90;63.50;;;;;;4998635;28;20235;-55
2021/04/21 12:13:36;;;;;;;2.83;1.98;;;36.70;63.90;;;;;;4998114;28;20204;-55
2021/04/21 12:16:10;;;;;;;3.67;2.08;;;36.60;64.50;;;;;;4997768;28;20259;-54
2021/04/21 12:18:41;;;;;;;10.95;8.23;;;36.50;65.50;;;;;;4998137;28;20272;-52
2021/04/21 12:21:27;;;;;;;19.08;13.90;;;36.40;65.60;;;;;;4994748;28;20236;-54
2021/04/21 12:24:01;;;;;;;12.57;9.68;;;36.30;66.40;;;;;;4994487;28;20656;-52
2021/04/21 12:26:32;;;;;;;9.07;6.32;;;36.20;66.80;;;;;;4996806;28;20211;-53
2021/04/21 12:29:03;;;;;;;6.13;4.50;;;36.20;67.20;;;;;;4994581;28;20204;-53
2021/04/21 12:31:34;;;;;;;3.88;3.47;;;36.10;67.80;;;;;;4997574;28;20242;-56
2021/04/21 12:34:05;;;;;;;3.38;3.05;;;36.00;68.30;;;;;;4996808;28;20202;-56
2021/04/21 12:36:36;;;;;;;2.72;2.50;;;35.90;68.70;;;;;;4995755;28;20255;-53
2021/04/21 12:39:08;;;;;;;4.18;3.45;;;35.80;69.00;;;;;;4994810;28;20689;-55
2021/04/21 12:41:39;;;;;;;4.50;3.95;;;35.70;69.60;;;;;;4995486;28;20238;-51
2021/04/21 12:44:17;;;;;;;3.53;3.13;;;35.60;69.60;;;;;;4994333;28;20215;-52
2021/04/21 12:46:48;;;;;;;3.30;2.88;;;35.60;70.50;;;;;;4993333;28;20247;-54
2021/04/21 12:49:33;;;;;;;3.58;2.63;;;35.50;70.30;;;;;;4994460;28;20710;-52
2021/04/21 12:52:03;;;;;;;3.15;2.85;;;35.40;71.10;;;;;;4986958;28;20567;-52
2021/04/21 12:54:36;;;;;;;3.20;2.90;;;35.40;71.00;;;;;;4994395;28;20251;-50
2021/04/21 12:57:08;;;;;;;6.70;3.47;;;35.30;71.50;;;;;;4992933;28;20216;-53
2021/04/21 12:59:42;;;;;;;7.55;6.40;;;35.20;71.70;;;;;;4994015;28;20204;-52
2021/04/21 13:02:16;;;;;;;8.48;6.43;;;35.20;73.20;;;;;;4985548;28;20338;-51
2021/04/21 13:04:47;;;;;;;9.55;7.20;;;35.20;72.50;;;;;;4993555;28;20275;-52
2021/04/21 13:07:18;;;;;;;10.85;7.30;;;35.10;72.60;;;;;;4992845;28;20209;-54
2021/04/21 13:09:50;;;;;;;10.50;7.13;;;35.10;72.90;;;;;;4993250;28;20231;-52
2021/04/21 13:12:23;;;;;;;7.95;6.13;;;35.00;73.10;;;;;;4993938;28;20224;-53
2021/04/21 13:14:53;;;;;;;7.05;5.70;;;34.90;73.40;;;;;;4994808;28;20303;-54
2021/04/21 13:17:24;;;;;;;6.28;5.57;;;34.90;73.40;;;;;;4994115;28;20708;-55
2021/04/21 13:19:54;;;;;;;7.10;5.65;;;34.90;73.70;;;;;;4994754;28;20234;-51
2021/04/21 13:22:33;;;;;;;7.25;5.95;;;34.80;73.90;;;;;;4994152;28;20291;-51
2021/04/21 13:25:05;;;;;;;6.13;4.82;;;34.80;74.20;;;;;;4952711;29;20201;-51
2021/04/21 13:27:37;;;;;;;5.13;4.63;;;34.80;74.60;;;;;;4913901;29;20306;-56
2021/04/21 13:30:12;;;;;;;4.72;4.30;;;34.70;74.60;;;;;;4913937;29;20207;-56
2021/04/21 13:32:43;;;;;;;5.63;5.05;;;34.70;75.30;;;;;;4914864;29;20214;-55